sensor_id;sensor_type;location;lat;lon;timestamp;pressure;altitude;pressure_sealevel;temperature;humidity
63447;BME280;49577;49.872;6.190;2023-07-08T00:00:24;99487.14;;;16.69;69.00
63447;BME280;49577;49.872;6.190;2023-07-08T00:02:50;99479.27;;;16.68;69.12
63447;BME280;49577;49.872;6.190;2023-07-08T00:05:16;99476.34;;;16.66;69.32
63447;BME280;49577;49.872;6.190;2023-07-08T00:07:42;99473.16;;;16.64;69.39
63447;BME280;49577;49.872;6.190;2023-07-08T00:10:15;99471.69;;;16.63;69.34
63447;BME280;49577;49.872;6.190;2023-07-08T00:12:41;99469.80;;;16.62;69.40
63447;BME280;49577;49.872;6.190;2023-07-08T00:15:06;99471.78;;;16.62;69.43
63447;BME280;49577;49.872;6.190;2023-07-08T00:17:32;99468.88;;;16.61;69.48
63447;BME280;49577;49.872;6.190;2023-07-08T00:19:57;99464.35;;;16.60;69.76
63447;BME280;49577;49.872;6.190;2023-07-08T00:22:22;99460.05;;;16.59;69.87
63447;BME280;49577;49.872;6.190;2023-07-08T00:24:49;99455.83;;;16.57;70.00
63447;BME280;49577;49.872;6.190;2023-07-08T00:27:15;99455.23;;;16.56;69.88
63447;BME280;49577;49.872;6.190;2023-07-08T00:29:40;99455.62;;;16.54;69.93
63447;BME280;49577;49.872;6.190;2023-07-08T00:32:09;99451.38;;;16.52;69.83
63447;BME280;49577;49.872;6.190;2023-07-08T00:34:35;99455.64;;;16.49;70.07
63447;BME280;49577;49.872;6.190;2023-07-08T00:37:00;99456.31;;;16.48;70.37
63447;BME280;49577;49.872;6.190;2023-07-08T00:39:25;99453.04;;;16.47;70.46
63447;BME280;49577;49.872;6.190;2023-07-08T00:41:50;99449.76;;;16.46;70.36
63447;BME280;49577;49.872;6.190;2023-07-08T00:44:16;99453.15;;;16.43;70.27
63447;BME280;49577;49.872;6.190;2023-07-08T00:46:48;99456.34;;;16.41;70.47
63447;BME280;49577;49.872;6.190;2023-07-08T00:51:43;99446.23;;;16.30;70.45
63447;BME280;49577;49.872;6.190;2023-07-08T00:59:21;99434.59;;;16.12;70.76
63447;BME280;49577;49.872;6.190;2023-07-08T01:01:49;99431.55;;;16.09;71.11
63447;BME280;49577;49.872;6.190;2023-07-08T01:04:20;99429.28;;;16.05;71.34
63447;BME280;49577;49.872;6.190;2023-07-08T01:06:47;99429.14;;;16.01;71.72
63447;BME280;49577;49.872;6.190;2023-07-08T01:09:18;99428.76;;;15.97;71.63
63447;BME280;49577;49.872;6.190;2023-07-08T01:11:43;99427.44;;;15.91;71.76
63447;BME280;49577;49.872;6.190;2023-07-08T01:14:09;99425.17;;;15.87;72.04
63447;BME280;49577;49.872;6.190;2023-07-08T01:16:37;99429.13;;;15.86;72.06
63447;BME280;49577;49.872;6.190;2023-07-08T01:19:03;99429.98;;;15.89;71.93
63447;BME280;49577;49.872;6.190;2023-07-08T01:23:54;99431.70;;;15.91;71.48
63447;BME280;49577;49.872;6.190;2023-07-08T01:26:22;99434.41;;;15.88;71.69
63447;BME280;49577;49.872;6.190;2023-07-08T01:28:48;99440.20;;;15.82;71.73
63447;BME280;49577;49.872;6.190;2023-07-08T01:31:13;99439.39;;;15.76;71.82
63447;BME280;49577;49.872;6.190;2023-07-08T01:33:38;99437.41;;;15.66;71.82
63447;BME280;49577;49.872;6.190;2023-07-08T01:36:04;99435.10;;;15.60;72.11
63447;BME280;49577;49.872;6.190;2023-07-08T01:38:29;99431.16;;;15.55;72.23
63447;BME280;49577;49.872;6.190;2023-07-08T01:40:55;99430.91;;;15.49;72.53
63447;BME280;49577;49.872;6.190;2023-07-08T01:43:21;99433.23;;;15.45;72.71
63447;BME280;49577;49.872;6.190;2023-07-08T01:45:47;99434.45;;;15.39;72.77
63447;BME280;49577;49.872;6.190;2023-07-08T01:48:14;99437.06;;;15.31;72.87
63447;BME280;49577;49.872;6.190;2023-07-08T01:50:59;99433.31;;;15.25;73.07
63447;BME280;49577;49.872;6.190;2023-07-08T01:53:30;99429.14;;;15.21;73.23
63447;BME280;49577;49.872;6.190;2023-07-08T01:55:57;99427.08;;;15.15;73.24
63447;BME280;49577;49.872;6.190;2023-07-08T01:58:22;99428.63;;;15.12;73.37
63447;BME280;49577;49.872;6.190;2023-07-08T02:00:47;99429.17;;;15.08;73.39
63447;BME280;49577;49.872;6.190;2023-07-08T02:03:13;99428.21;;;15.02;73.58
63447;BME280;49577;49.872;6.190;2023-07-08T02:05:38;99428.55;;;14.99;73.67
63447;BME280;49577;49.872;6.190;2023-07-08T02:08:04;99429.73;;;14.93;73.64
63447;BME280;49577;49.872;6.190;2023-07-08T02:10:29;99428.44;;;14.85;73.72
63447;BME280;49577;49.872;6.190;2023-07-08T02:12:54;99428.83;;;14.78;73.70
63447;BME280;49577;49.872;6.190;2023-07-08T02:15:19;99428.73;;;14.73;73.88
63447;BME280;49577;49.872;6.190;2023-07-08T02:17:45;99428.10;;;14.68;74.07
63447;BME280;49577;49.872;6.190;2023-07-08T02:20:10;99425.73;;;14.60;74.14
63447;BME280;49577;49.872;6.190;2023-07-08T02:22:35;99428.23;;;14.53;74.30
63447;BME280;49577;49.872;6.190;2023-07-08T02:25:01;99429.61;;;14.50;74.70
63447;BME280;49577;49.872;6.190;2023-07-08T02:27:27;99432.91;;;14.50;74.90
63447;BME280;49577;49.872;6.190;2023-07-08T02:29:52;99432.31;;;14.53;74.92
63447;BME280;49577;49.872;6.190;2023-07-08T02:32:17;99432.06;;;14.54;75.00
63447;BME280;49577;49.872;6.190;2023-07-08T02:34:42;99428.62;;;14.53;74.88
63447;BME280;49577;49.872;6.190;2023-07-08T02:37:08;99431.48;;;14.52;74.96
63447;BME280;49577;49.872;6.190;2023-07-08T02:39:33;99436.36;;;14.51;74.90
63447;BME280;49577;49.872;6.190;2023-07-08T02:41:58;99438.30;;;14.48;74.94
63447;BME280;49577;49.872;6.190;2023-07-08T02:44:23;99440.71;;;14.45;74.82
63447;BME280;49577;49.872;6.190;2023-07-08T02:46:48;99447.36;;;14.40;75.01
63447;BME280;49577;49.872;6.190;2023-07-08T02:49:14;99450.98;;;14.41;75.29
63447;BME280;49577;49.872;6.190;2023-07-08T02:51:39;99449.85;;;14.45;75.20
63447;BME280;49577;49.872;6.190;2023-07-08T02:54:04;99449.48;;;14.47;75.28
63447;BME280;49577;49.872;6.190;2023-07-08T02:56:30;99452.44;;;14.50;75.17
63447;BME280;49577;49.872;6.190;2023-07-08T02:58:55;99456.23;;;14.48;74.68
63447;BME280;49577;49.872;6.190;2023-07-08T03:01:20;99454.19;;;14.43;74.77
63447;BME280;49577;49.872;6.190;2023-07-08T03:03:45;99458.98;;;14.40;74.96
63447;BME280;49577;49.872;6.190;2023-07-08T03:06:11;99459.95;;;14.39;75.08
63447;BME280;49577;49.872;6.190;2023-07-08T03:08:37;99463.00;;;14.36;75.07
63447;BME280;49577;49.872;6.190;2023-07-08T03:11:03;99463.24;;;14.35;75.43
63447;BME280;49577;49.872;6.190;2023-07-08T03:13:29;99462.19;;;14.35;75.44
63447;BME280;49577;49.872;6.190;2023-07-08T03:15:54;99463.69;;;14.36;75.57
63447;BME280;49577;49.872;6.190;2023-07-08T03:18:20;99464.39;;;14.38;75.59
63447;BME280;49577;49.872;6.190;2023-07-08T03:20:47;99461.65;;;14.39;75.58
63447;BME280;49577;49.872;6.190;2023-07-08T03:23:13;99463.51;;;14.38;75.54
63447;BME280;49577;49.872;6.190;2023-07-08T03:25:38;99464.79;;;14.37;75.70
63447;BME280;49577;49.872;6.190;2023-07-08T03:28:04;99468.63;;;14.38;75.76
63447;BME280;49577;49.872;6.190;2023-07-08T03:30:39;99464.49;;;14.37;75.74
63447;BME280;49577;49.872;6.190;2023-07-08T03:33:04;99462.72;;;14.37;75.71
63447;BME280;49577;49.872;6.190;2023-07-08T03:35:29;99463.61;;;14.37;75.91
63447;BME280;49577;49.872;6.190;2023-07-08T03:37:54;99464.09;;;14.37;75.91
63447;BME280;49577;49.872;6.190;2023-07-08T03:40:19;99464.21;;;14.38;75.96
63447;BME280;49577;49.872;6.190;2023-07-08T03:42:45;99466.50;;;14.38;76.16
63447;BME280;49577;49.872;6.190;2023-07-08T03:45:10;99465.27;;;14.38;75.83
63447;BME280;49577;49.872;6.190;2023-07-08T03:47:35;99465.77;;;14.41;76.03
63447;BME280;49577;49.872;6.190;2023-07-08T03:50:00;99464.19;;;14.43;75.82
63447;BME280;49577;49.872;6.190;2023-07-08T03:52:26;99465.16;;;14.44;75.87
63447;BME280;49577;49.872;6.190;2023-07-08T03:54:51;99467.13;;;14.46;75.90
63447;BME280;49577;49.872;6.190;2023-07-08T03:57:16;99468.09;;;14.52;75.93
63447;BME280;49577;49.872;6.190;2023-07-08T03:59:41;99468.30;;;14.56;75.69
63447;BME280;49577;49.872;6.190;2023-07-08T04:02:08;99463.39;;;14.55;75.76
63447;BME280;49577;49.872;6.190;2023-07-08T04:04:33;99468.21;;;14.59;75.75
63447;BME280;49577;49.872;6.190;2023-07-08T04:07:00;99466.30;;;14.61;75.69
63447;BME280;49577;49.872;6.190;2023-07-08T04:09:25;99457.55;;;14.62;75.57
63447;BME280;49577;49.872;6.190;2023-07-08T04:11:50;99454.04;;;14.62;75.52
63447;BME280;49577;49.872;6.190;2023-07-08T04:14:16;99448.99;;;14.59;75.57
63447;BME280;49577;49.872;6.190;2023-07-08T04:16:45;99451.80;;;14.57;75.77
63447;BME280;49577;49.872;6.190;2023-07-08T04:19:12;99450.73;;;14.58;75.92
63447;BME280;49577;49.872;6.190;2023-07-08T04:21:39;99446.67;;;14.58;75.83
63447;BME280;49577;49.872;6.190;2023-07-08T04:24:05;99445.08;;;14.60;75.89
63447;BME280;49577;49.872;6.190;2023-07-08T04:26:30;99446.20;;;14.63;75.79
63447;BME280;49577;49.872;6.190;2023-07-08T04:28:55;99451.40;;;14.64;75.61
63447;BME280;49577;49.872;6.190;2023-07-08T04:31:20;99448.47;;;14.66;75.38
63447;BME280;49577;49.872;6.190;2023-07-08T04:33:46;99453.10;;;14.67;75.39
63447;BME280;49577;49.872;6.190;2023-07-08T04:36:12;99448.80;;;14.66;75.49
63447;BME280;49577;49.872;6.190;2023-07-08T04:38:37;99447.70;;;14.64;75.82
63447;BME280;49577;49.872;6.190;2023-07-08T04:41:03;99453.88;;;14.66;75.96
63447;BME280;49577;49.872;6.190;2023-07-08T04:43:28;99461.34;;;14.72;75.65
63447;BME280;49577;49.872;6.190;2023-07-08T04:45:54;99462.77;;;14.78;75.48
63447;BME280;49577;49.872;6.190;2023-07-08T04:48:20;99461.73;;;14.82;75.32
63447;BME280;49577;49.872;6.190;2023-07-08T04:50:50;99464.02;;;14.84;75.25
63447;BME280;49577;49.872;6.190;2023-07-08T04:53:16;99463.29;;;14.87;75.24
63447;BME280;49577;49.872;6.190;2023-07-08T04:55:42;99466.87;;;14.90;75.14
63447;BME280;49577;49.872;6.190;2023-07-08T04:58:09;99465.73;;;14.93;75.11
63447;BME280;49577;49.872;6.190;2023-07-08T05:00:34;99469.02;;;14.97;75.00
63447;BME280;49577;49.872;6.190;2023-07-08T05:02:59;99472.50;;;15.01;75.08
63447;BME280;49577;49.872;6.190;2023-07-08T05:05:25;99480.10;;;15.07;74.94
63447;BME280;49577;49.872;6.190;2023-07-08T05:07:50;99476.71;;;15.13;74.82
63447;BME280;49577;49.872;6.190;2023-07-08T05:10:16;99479.36;;;15.22;74.59
63447;BME280;49577;49.872;6.190;2023-07-08T05:12:41;99482.95;;;15.31;74.39
63447;BME280;49577;49.872;6.190;2023-07-08T05:15:07;99488.15;;;15.43;74.23
63447;BME280;49577;49.872;6.190;2023-07-08T05:17:32;99489.23;;;15.57;74.03
63447;BME280;49577;49.872;6.190;2023-07-08T05:19:57;99489.30;;;15.69;73.66
63447;BME280;49577;49.872;6.190;2023-07-08T05:22:25;99494.52;;;15.84;73.24
63447;BME280;49577;49.872;6.190;2023-07-08T05:24:51;99496.30;;;16.06;72.64
63447;BME280;49577;49.872;6.190;2023-07-08T05:27:17;99499.51;;;16.16;72.14
63447;BME280;49577;49.872;6.190;2023-07-08T05:29:42;99498.21;;;16.26;71.72
63447;BME280;49577;49.872;6.190;2023-07-08T05:32:08;99497.74;;;16.44;71.39
63447;BME280;49577;49.872;6.190;2023-07-08T05:34:33;99493.27;;;16.87;70.78
63447;BME280;49577;49.872;6.190;2023-07-08T05:36:58;99491.45;;;17.78;69.29
63447;BME280;49577;49.872;6.190;2023-07-08T05:39:23;99490.44;;;18.69;67.07
63447;BME280;49577;49.872;6.190;2023-07-08T05:41:49;99486.44;;;19.59;65.02
63447;BME280;49577;49.872;6.190;2023-07-08T05:44:14;99489.67;;;20.42;62.71
63447;BME280;49577;49.872;6.190;2023-07-08T05:46:39;99485.85;;;20.82;61.16
63447;BME280;49577;49.872;6.190;2023-07-08T05:49:05;99487.98;;;20.86;60.33
63447;BME280;49577;49.872;6.190;2023-07-08T05:51:30;99490.98;;;21.41;59.41
63447;BME280;49577;49.872;6.190;2023-07-08T05:53:55;99493.95;;;22.16;58.09
63447;BME280;49577;49.872;6.190;2023-07-08T05:56:20;99493.38;;;22.82;56.22
63447;BME280;49577;49.872;6.190;2023-07-08T05:58:45;99490.17;;;23.37;54.95
63447;BME280;49577;49.872;6.190;2023-07-08T06:01:11;99486.17;;;23.99;53.35
63447;BME280;49577;49.872;6.190;2023-07-08T06:03:36;99480.35;;;24.67;51.92
63447;BME280;49577;49.872;6.190;2023-07-08T06:06:02;99472.84;;;25.26;50.62
63447;BME280;49577;49.872;6.190;2023-07-08T06:08:27;99477.41;;;25.81;49.46
63447;BME280;49577;49.872;6.190;2023-07-08T06:10:52;99480.23;;;26.34;47.58
63447;BME280;49577;49.872;6.190;2023-07-08T06:13:17;99474.95;;;26.69;46.38
63447;BME280;49577;49.872;6.190;2023-07-08T06:15:42;99482.87;;;27.09;45.77
63447;BME280;49577;49.872;6.190;2023-07-08T06:18:08;99484.41;;;27.52;44.42
63447;BME280;49577;49.872;6.190;2023-07-08T06:20:33;99485.34;;;27.91;43.69
63447;BME280;49577;49.872;6.190;2023-07-08T06:22:58;99486.04;;;28.19;42.34
63447;BME280;49577;49.872;6.190;2023-07-08T06:25:27;99485.68;;;28.41;41.89
63447;BME280;49577;49.872;6.190;2023-07-08T06:27:54;99487.13;;;28.68;40.72
63447;BME280;49577;49.872;6.190;2023-07-08T06:30:27;99486.73;;;28.82;40.21
63447;BME280;49577;49.872;6.190;2023-07-08T06:32:52;99477.89;;;29.10;39.50
63447;BME280;49577;49.872;6.190;2023-07-08T06:35:18;99471.48;;;29.24;38.44
63447;BME280;49577;49.872;6.190;2023-07-08T06:37:43;99469.77;;;29.36;38.36
63447;BME280;49577;49.872;6.190;2023-07-08T06:40:08;99474.48;;;29.65;37.79
63447;BME280;49577;49.872;6.190;2023-07-08T06:42:33;99481.53;;;30.02;37.09
63447;BME280;49577;49.872;6.190;2023-07-08T06:44:59;99483.70;;;30.34;36.26
63447;BME280;49577;49.872;6.190;2023-07-08T06:47:24;99489.43;;;30.77;35.91
63447;BME280;49577;49.872;6.190;2023-07-08T06:49:49;99489.83;;;31.20;35.25
63447;BME280;49577;49.872;6.190;2023-07-08T06:52:14;99502.02;;;31.52;34.26
63447;BME280;49577;49.872;6.190;2023-07-08T06:54:40;99512.66;;;31.74;33.90
63447;BME280;49577;49.872;6.190;2023-07-08T06:57:05;99518.50;;;32.02;33.42
63447;BME280;49577;49.872;6.190;2023-07-08T06:59:31;99522.75;;;32.36;32.57
63447;BME280;49577;49.872;6.190;2023-07-08T07:01:56;99520.41;;;32.62;31.45
63447;BME280;49577;49.872;6.190;2023-07-08T07:04:22;99520.16;;;32.83;31.30
63447;BME280;49577;49.872;6.190;2023-07-08T07:06:47;99521.30;;;33.04;30.77
63447;BME280;49577;49.872;6.190;2023-07-08T07:09:12;99516.25;;;33.26;30.24
63447;BME280;49577;49.872;6.190;2023-07-08T07:11:37;99513.94;;;33.54;29.94
63447;BME280;49577;49.872;6.190;2023-07-08T07:14:02;99516.14;;;33.86;28.78
63447;BME280;49577;49.872;6.190;2023-07-08T07:16:28;99515.34;;;34.04;28.12
63447;BME280;49577;49.872;6.190;2023-07-08T07:18:53;99509.96;;;34.28;28.06
63447;BME280;49577;49.872;6.190;2023-07-08T07:21:19;99506.86;;;34.52;28.16
63447;BME280;49577;49.872;6.190;2023-07-08T07:23:44;99504.79;;;34.90;27.94
63447;BME280;49577;49.872;6.190;2023-07-08T07:26:09;99511.90;;;35.21;27.67
63447;BME280;49577;49.872;6.190;2023-07-08T07:28:34;99510.11;;;35.56;27.52
63447;BME280;49577;49.872;6.190;2023-07-08T07:31:00;99507.60;;;36.00;26.84
63447;BME280;49577;49.872;6.190;2023-07-08T07:33:25;99507.11;;;36.25;26.23
63447;BME280;49577;49.872;6.190;2023-07-08T07:35:51;99503.30;;;36.54;25.85
63447;BME280;49577;49.872;6.190;2023-07-08T07:38:16;99504.46;;;36.88;25.55
63447;BME280;49577;49.872;6.190;2023-07-08T07:40:42;99509.52;;;37.27;25.02
63447;BME280;49577;49.872;6.190;2023-07-08T07:43:07;99508.48;;;37.56;24.40
63447;BME280;49577;49.872;6.190;2023-07-08T07:45:32;99505.56;;;37.70;23.92
63447;BME280;49577;49.872;6.190;2023-07-08T07:47:58;99506.08;;;37.88;22.49
63447;BME280;49577;49.872;6.190;2023-07-08T07:50:23;99510.07;;;37.93;22.26
63447;BME280;49577;49.872;6.190;2023-07-08T07:52:48;99506.64;;;38.14;21.63
63447;BME280;49577;49.872;6.190;2023-07-08T07:55:13;99506.39;;;38.37;21.55
63447;BME280;49577;49.872;6.190;2023-07-08T07:57:39;99506.40;;;38.47;21.21
63447;BME280;49577;49.872;6.190;2023-07-08T08:00:04;99504.44;;;38.56;21.02
63447;BME280;49577;49.872;6.190;2023-07-08T08:02:29;99506.23;;;38.59;20.59
63447;BME280;49577;49.872;6.190;2023-07-08T08:04:55;99499.55;;;38.60;20.23
63447;BME280;49577;49.872;6.190;2023-07-08T08:07:20;99490.48;;;38.66;20.32
63447;BME280;49577;49.872;6.190;2023-07-08T08:09:45;99488.75;;;38.70;20.17
63447;BME280;49577;49.872;6.190;2023-07-08T08:12:11;99492.10;;;38.49;20.06
63447;BME280;49577;49.872;6.190;2023-07-08T08:14:36;99493.20;;;38.49;20.17
63447;BME280;49577;49.872;6.190;2023-07-08T08:17:02;99493.91;;;38.67;19.82
63447;BME280;49577;49.872;6.190;2023-07-08T08:19:27;99493.17;;;38.90;19.97
63447;BME280;49577;49.872;6.190;2023-07-08T08:21:52;99492.20;;;39.02;19.42
63447;BME280;49577;49.872;6.190;2023-07-08T08:24:17;99493.61;;;39.11;19.29
63447;BME280;49577;49.872;6.190;2023-07-08T08:26:43;99493.92;;;39.38;19.05
63447;BME280;49577;49.872;6.190;2023-07-08T08:29:08;99503.23;;;39.57;18.85
63447;BME280;49577;49.872;6.190;2023-07-08T08:31:33;99510.28;;;39.59;18.35
63447;BME280;49577;49.872;6.190;2023-07-08T08:33:58;99516.08;;;39.56;18.90
63447;BME280;49577;49.872;6.190;2023-07-08T08:36:23;99517.39;;;39.69;18.77
63447;BME280;49577;49.872;6.190;2023-07-08T08:38:49;99521.16;;;39.95;18.59
63447;BME280;49577;49.872;6.190;2023-07-08T08:41:18;99521.09;;;40.06;18.39
63447;BME280;49577;49.872;6.190;2023-07-08T08:43:44;99524.48;;;39.96;18.50
63447;BME280;49577;49.872;6.190;2023-07-08T08:48:37;99515.17;;;39.95;18.62
63447;BME280;49577;49.872;6.190;2023-07-08T08:51:07;99520.88;;;40.06;18.46
63447;BME280;49577;49.872;6.190;2023-07-08T08:53:37;99519.70;;;40.19;18.60
63447;BME280;49577;49.872;6.190;2023-07-08T08:56:09;99521.95;;;40.35;18.35
63447;BME280;49577;49.872;6.190;2023-07-08T08:58:41;99524.27;;;40.41;18.17
63447;BME280;49577;49.872;6.190;2023-07-08T09:01:09;99521.57;;;40.43;18.05
63447;BME280;49577;49.872;6.190;2023-07-08T09:03:37;99517.84;;;40.47;17.91
63447;BME280;49577;49.872;6.190;2023-07-08T09:06:09;99510.43;;;40.67;17.99
63447;BME280;49577;49.872;6.190;2023-07-08T09:08:35;99512.83;;;40.98;17.60
63447;BME280;49577;49.872;6.190;2023-07-08T09:11:22;99509.52;;;41.02;17.45
63447;BME280;49577;49.872;6.190;2023-07-08T09:13:49;99510.84;;;41.06;17.77
63447;BME280;49577;49.872;6.190;2023-07-08T09:16:34;99507.86;;;41.23;17.82
63447;BME280;49577;49.872;6.190;2023-07-08T09:19:05;99507.48;;;41.26;17.56
63447;BME280;49577;49.872;6.190;2023-07-08T09:21:34;99510.84;;;40.95;17.46
63447;BME280;49577;49.872;6.190;2023-07-08T09:24:03;99505.06;;;40.62;17.47
63447;BME280;49577;49.872;6.190;2023-07-08T09:26:32;99504.02;;;40.51;17.92
63447;BME280;49577;49.872;6.190;2023-07-08T09:28:58;99503.19;;;40.71;17.86
63447;BME280;49577;49.872;6.190;2023-07-08T09:31:27;99509.89;;;40.81;17.53
63447;BME280;49577;49.872;6.190;2023-07-08T09:33:54;99506.41;;;40.57;17.98
63447;BME280;49577;49.872;6.190;2023-07-08T09:36:29;99508.42;;;40.13;18.36
63447;BME280;49577;49.872;6.190;2023-07-08T09:38:54;99504.82;;;39.70;18.66
63447;BME280;49577;49.872;6.190;2023-07-08T09:41:32;99499.66;;;39.64;18.94
63447;BME280;49577;49.872;6.190;2023-07-08T09:44:32;99503.58;;;39.88;18.91
63447;BME280;49577;49.872;6.190;2023-07-08T09:46:51;99504.34;;;39.94;19.02
63447;BME280;49577;49.872;6.190;2023-07-08T09:49:22;99508.60;;;40.05;19.20
63447;BME280;49577;49.872;6.190;2023-07-08T09:51:48;99510.43;;;39.97;18.84
63447;BME280;49577;49.872;6.190;2023-07-08T09:54:15;99511.10;;;39.77;18.80
63447;BME280;49577;49.872;6.190;2023-07-08T09:56:41;99513.31;;;39.95;18.94
63447;BME280;49577;49.872;6.190;2023-07-08T09:59:11;99512.08;;;40.27;18.92
63447;BME280;49577;49.872;6.190;2023-07-08T10:01:38;99508.67;;;40.59;19.00
63447;BME280;49577;49.872;6.190;2023-07-08T10:04:04;99509.93;;;40.98;18.74
63447;BME280;49577;49.872;6.190;2023-07-08T10:06:30;99503.27;;;41.35;18.49
63447;BME280;49577;49.872;6.190;2023-07-08T10:09:00;99509.47;;;41.72;18.12
63447;BME280;49577;49.872;6.190;2023-07-08T10:11:28;99503.83;;;41.95;18.00
63447;BME280;49577;49.872;6.190;2023-07-08T10:13:54;99502.05;;;42.11;17.87
63447;BME280;49577;49.872;6.190;2023-07-08T10:16:25;99505.83;;;42.20;17.59
63447;BME280;49577;49.872;6.190;2023-07-08T10:18:51;99505.73;;;42.35;17.41
63447;BME280;49577;49.872;6.190;2023-07-08T10:21:26;99506.26;;;42.45;17.33
63447;BME280;49577;49.872;6.190;2023-07-08T10:26:39;99508.69;;;42.59;17.54
63447;BME280;49577;49.872;6.190;2023-07-08T10:29:09;99507.41;;;42.67;17.49
63447;BME280;49577;49.872;6.190;2023-07-08T10:31:46;99504.14;;;42.61;17.26
63447;BME280;49577;49.872;6.190;2023-07-08T10:35:03;99504.89;;;42.49;17.31
63447;BME280;49577;49.872;6.190;2023-07-08T10:42:09;99503.02;;;42.62;17.59
63447;BME280;49577;49.872;6.190;2023-07-08T10:44:55;99501.26;;;42.64;17.34
63447;BME280;49577;49.872;6.190;2023-07-08T10:49:55;99501.95;;;42.18;17.46
63447;BME280;49577;49.872;6.190;2023-07-08T10:55:28;99503.56;;;42.31;17.63
63447;BME280;49577;49.872;6.190;2023-07-08T11:05:41;99492.20;;;42.70;17.36
63447;BME280;49577;49.872;6.190;2023-07-08T11:08:12;99490.34;;;42.76;17.44
63447;BME280;49577;49.872;6.190;2023-07-08T11:10:46;99486.30;;;42.68;17.43
63447;BME280;49577;49.872;6.190;2023-07-08T11:13:16;99485.64;;;42.58;17.58
63447;BME280;49577;49.872;6.190;2023-07-08T11:15:52;99484.27;;;42.67;17.43
63447;BME280;49577;49.872;6.190;2023-07-08T11:18:22;99480.31;;;42.76;17.43
63447;BME280;49577;49.872;6.190;2023-07-08T11:20:56;99483.27;;;42.67;17.59
63447;BME280;49577;49.872;6.190;2023-07-08T11:28:36;99481.25;;;41.27;18.51
63447;BME280;49577;49.872;6.190;2023-07-08T11:31:01;99489.09;;;40.87;19.06
63447;BME280;49577;49.872;6.190;2023-07-08T11:33:27;99483.18;;;40.44;19.18
63447;BME280;49577;49.872;6.190;2023-07-08T11:35:54;99478.50;;;40.02;19.28
63447;BME280;49577;49.872;6.190;2023-07-08T11:38:23;99475.14;;;39.70;19.78
63447;BME280;49577;49.872;6.190;2023-07-08T11:41:11;99475.38;;;39.53;20.20
63447;BME280;49577;49.872;6.190;2023-07-08T11:43:34;99479.69;;;39.32;20.30
63447;BME280;49577;49.872;6.190;2023-07-08T11:46:03;99479.09;;;38.98;20.44
63447;BME280;49577;49.872;6.190;2023-07-08T11:48:30;99479.69;;;38.65;20.83
63447;BME280;49577;49.872;6.190;2023-07-08T11:50:56;99472.79;;;38.38;20.91
63447;BME280;49577;49.872;6.190;2023-07-08T11:58:23;99462.77;;;38.13;22.43
63447;BME280;49577;49.872;6.190;2023-07-08T12:03:31;99459.27;;;38.13;22.43
63447;BME280;49577;49.872;6.190;2023-07-08T12:05:59;99455.54;;;37.93;22.60
63447;BME280;49577;49.872;6.190;2023-07-08T12:08:33;99453.89;;;37.52;23.13
63447;BME280;49577;49.872;6.190;2023-07-08T12:10:58;99454.17;;;37.29;23.37
63447;BME280;49577;49.872;6.190;2023-07-08T12:13:24;99455.79;;;37.14;23.79
63447;BME280;49577;49.872;6.190;2023-07-08T12:15:50;99454.80;;;37.15;23.74
63447;BME280;49577;49.872;6.190;2023-07-08T12:18:16;99451.42;;;37.15;24.11
63447;BME280;49577;49.872;6.190;2023-07-08T12:20:52;99451.31;;;37.12;24.07
63447;BME280;49577;49.872;6.190;2023-07-08T12:23:21;99446.61;;;37.13;24.20
63447;BME280;49577;49.872;6.190;2023-07-08T12:25:47;99444.90;;;37.17;23.99
63447;BME280;49577;49.872;6.190;2023-07-08T12:28:12;99457.16;;;37.15;24.04
63447;BME280;49577;49.872;6.190;2023-07-08T12:30:39;99452.23;;;37.06;24.30
63447;BME280;49577;49.872;6.190;2023-07-08T12:33:05;99450.52;;;36.89;24.64
63447;BME280;49577;49.872;6.190;2023-07-08T12:35:34;99445.60;;;36.80;24.69
63447;BME280;49577;49.872;6.190;2023-07-08T12:38:01;99436.05;;;36.75;24.58
63447;BME280;49577;49.872;6.190;2023-07-08T12:40:28;99432.70;;;36.59;24.78
63447;BME280;49577;49.872;6.190;2023-07-08T12:42:55;99432.77;;;36.63;25.14
63447;BME280;49577;49.872;6.190;2023-07-08T12:45:21;99430.96;;;36.67;25.02
63447;BME280;49577;49.872;6.190;2023-07-08T12:47:47;99428.50;;;36.61;24.90
63447;BME280;49577;49.872;6.190;2023-07-08T12:50:13;99426.86;;;36.55;24.85
63447;BME280;49577;49.872;6.190;2023-07-08T12:52:39;99430.77;;;36.45;25.11
63447;BME280;49577;49.872;6.190;2023-07-08T12:55:04;99429.77;;;36.68;25.03
63447;BME280;49577;49.872;6.190;2023-07-08T12:57:30;99427.01;;;36.98;25.04
63447;BME280;49577;49.872;6.190;2023-07-08T12:59:56;99425.17;;;37.32;24.92
63447;BME280;49577;49.872;6.190;2023-07-08T13:02:21;99430.88;;;37.56;24.62
63447;BME280;49577;49.872;6.190;2023-07-08T13:04:49;99432.65;;;37.43;24.36
63447;BME280;49577;49.872;6.190;2023-07-08T13:07:31;99431.53;;;37.04;24.66
63447;BME280;49577;49.872;6.190;2023-07-08T13:09:58;99424.80;;;36.77;24.87
63447;BME280;49577;49.872;6.190;2023-07-08T13:12:24;99422.02;;;36.85;24.93
63447;BME280;49577;49.872;6.190;2023-07-08T13:14:51;99423.66;;;36.90;24.88
63447;BME280;49577;49.872;6.190;2023-07-08T13:17:17;99423.39;;;36.84;25.04
63447;BME280;49577;49.872;6.190;2023-07-08T13:19:42;99425.02;;;36.72;24.99
63447;BME280;49577;49.872;6.190;2023-07-08T13:22:10;99427.16;;;36.44;25.08
63447;BME280;49577;49.872;6.190;2023-07-08T13:24:37;99429.66;;;36.19;25.24
63447;BME280;49577;49.872;6.190;2023-07-08T13:27:04;99434.23;;;36.02;25.48
63447;BME280;49577;49.872;6.190;2023-07-08T13:29:34;99434.30;;;35.72;26.02
63447;BME280;49577;49.872;6.190;2023-07-08T13:32:03;99434.09;;;35.53;26.21
63447;BME280;49577;49.872;6.190;2023-07-08T13:34:30;99431.06;;;35.42;26.61
63447;BME280;49577;49.872;6.190;2023-07-08T13:36:57;99434.58;;;35.31;27.13
63447;BME280;49577;49.872;6.190;2023-07-08T13:39:24;99441.59;;;35.28;26.86
63447;BME280;49577;49.872;6.190;2023-07-08T13:41:51;99442.02;;;35.27;26.67
63447;BME280;49577;49.872;6.190;2023-07-08T13:44:16;99438.84;;;35.32;26.77